sensor_id;sensor_type;location;lat;lon;timestamp;P1;durP1;ratioP1;P2;durP2;ratioP2
64225;SDS011;50545;56.064;26.178;2023-08-30T00:18:55;1.73;;;1.25;;
64225;SDS011;50545;56.064;26.178;2023-08-30T00:21:25;2.08;;;1.40;;
64225;SDS011;50545;56.064;26.178;2023-08-30T01:02:31;1.42;;;1.30;;
64225;SDS011;50545;56.064;26.178;2023-08-30T01:05:02;1.75;;;1.15;;
64225;SDS011;50545;56.064;26.178;2023-08-30T01:07:31;1.85;;;1.35;;
64225;SDS011;50545;56.064;26.178;2023-08-30T01:10:01;1.55;;;1.20;;
64225;SDS011;50545;56.064;26.178;2023-08-30T01:12:36;1.77;;;1.17;;
64225;SDS011;50545;56.064;26.178;2023-08-30T01:15:13;3.47;;;1.60;;
64225;SDS011;50545;56.064;26.178;2023-08-30T01:17:49;2.30;;;1.35;;
64225;SDS011;50545;56.064;26.178;2023-08-30T01:20:21;2.40;;;1.45;;
64225;SDS011;50545;56.064;26.178;2023-08-30T01:23:11;1.55;;;1.35;;
64225;SDS011;50545;56.064;26.178;2023-08-30T01:28:37;1.77;;;1.33;;
64225;SDS011;50545;56.064;26.178;2023-08-30T01:31:09;2.92;;;1.52;;
64225;SDS011;50545;56.064;26.178;2023-08-30T01:33:41;1.38;;;1.23;;
64225;SDS011;50545;56.064;26.178;2023-08-30T01:36:11;1.75;;;1.58;;
64225;SDS011;50545;56.064;26.178;2023-08-30T01:38:41;1.67;;;1.58;;
64225;SDS011;50545;56.064;26.178;2023-08-30T01:41:11;2.08;;;1.63;;
64225;SDS011;50545;56.064;26.178;2023-08-30T01:43:41;2.63;;;1.63;;
64225;SDS011;50545;56.064;26.178;2023-08-30T01:46:11;2.38;;;1.63;;
64225;SDS011;50545;56.064;26.178;2023-08-30T01:48:42;3.13;;;1.25;;
64225;SDS011;50545;56.064;26.178;2023-08-30T01:51:12;2.33;;;1.40;;
64225;SDS011;50545;56.064;26.178;2023-08-30T01:53:44;3.75;;;1.58;;
64225;SDS011;50545;56.064;26.178;2023-08-30T01:56:15;2.55;;;1.50;;
64225;SDS011;50545;56.064;26.178;2023-08-30T01:58:44;3.42;;;1.70;;
64225;SDS011;50545;56.064;26.178;2023-08-30T02:01:13;2.65;;;1.63;;
64225;SDS011;50545;56.064;26.178;2023-08-30T02:03:47;1.98;;;1.42;;
64225;SDS011;50545;56.064;26.178;2023-08-30T02:06:21;7.70;;;1.63;;
64225;SDS011;50545;56.064;26.178;2023-08-30T02:08:57;1.83;;;1.60;;
64225;SDS011;50545;56.064;26.178;2023-08-30T02:11:39;3.63;;;1.60;;
64225;SDS011;50545;56.064;26.178;2023-08-30T02:14:12;2.17;;;1.45;;
64225;SDS011;50545;56.064;26.178;2023-08-30T02:16:46;1.60;;;1.40;;
64225;SDS011;50545;56.064;26.178;2023-08-30T02:19:17;1.67;;;1.45;;
64225;SDS011;50545;56.064;26.178;2023-08-30T02:21:49;1.13;;;0.85;;
64225;SDS011;50545;56.064;26.178;2023-08-30T02:24:19;1.40;;;1.23;;
64225;SDS011;50545;56.064;26.178;2023-08-30T02:26:48;2.47;;;1.60;;
64225;SDS011;50545;56.064;26.178;2023-08-30T02:29:18;1.35;;;1.25;;
64225;SDS011;50545;56.064;26.178;2023-08-30T02:31:47;7.53;;;1.98;;
64225;SDS011;50545;56.064;26.178;2023-08-30T02:34:17;2.95;;;1.70;;
64225;SDS011;50545;56.064;26.178;2023-08-30T02:36:47;2.58;;;1.58;;
64225;SDS011;50545;56.064;26.178;2023-08-30T02:39:16;2.45;;;1.40;;
64225;SDS011;50545;56.064;26.178;2023-08-30T02:41:47;1.85;;;1.60;;
64225;SDS011;50545;56.064;26.178;2023-08-30T02:46:48;3.17;;;1.60;;
64225;SDS011;50545;56.064;26.178;2023-08-30T02:49:18;2.13;;;1.50;;
64225;SDS011;50545;56.064;26.178;2023-08-30T02:51:48;1.48;;;1.27;;
64225;SDS011;50545;56.064;26.178;2023-08-30T02:54:17;2.45;;;1.42;;
64225;SDS011;50545;56.064;26.178;2023-08-30T02:56:47;2.38;;;1.60;;
64225;SDS011;50545;56.064;26.178;2023-08-30T02:59:16;1.87;;;1.53;;
64225;SDS011;50545;56.064;26.178;2023-08-30T03:01:46;1.50;;;1.40;;
64225;SDS011;50545;56.064;26.178;2023-08-30T03:04:16;2.42;;;1.77;;
64225;SDS011;50545;56.064;26.178;2023-08-30T03:09:16;2.37;;;1.30;;
64225;SDS011;50545;56.064;26.178;2023-08-30T03:11:46;2.05;;;1.50;;
64225;SDS011;50545;56.064;26.178;2023-08-30T03:14:15;1.52;;;1.40;;
64225;SDS011;50545;56.064;26.178;2023-08-30T03:16:45;2.38;;;1.80;;
64225;SDS011;50545;56.064;26.178;2023-08-30T03:19:15;1.77;;;1.40;;
64225;SDS011;50545;56.064;26.178;2023-08-30T03:21:46;2.22;;;1.55;;
64225;SDS011;50545;56.064;26.178;2023-08-30T03:24:16;3.15;;;1.77;;
64225;SDS011;50545;56.064;26.178;2023-08-30T03:26:46;4.00;;;1.45;;
64225;SDS011;50545;56.064;26.178;2023-08-30T03:29:15;2.33;;;1.60;;
64225;SDS011;50545;56.064;26.178;2023-08-30T03:31:44;2.72;;;2.17;;
64225;SDS011;50545;56.064;26.178;2023-08-30T03:34:14;5.93;;;2.73;;
64225;SDS011;50545;56.064;26.178;2023-08-30T03:36:44;3.10;;;1.90;;
64225;SDS011;50545;56.064;26.178;2023-08-30T03:39:21;1.65;;;1.33;;
64225;SDS011;50545;56.064;26.178;2023-08-30T03:41:51;3.70;;;2.35;;
64225;SDS011;50545;56.064;26.178;2023-08-30T03:44:21;2.97;;;1.97;;
64225;SDS011;50545;56.064;26.178;2023-08-30T03:46:51;3.85;;;2.13;;
64225;SDS011;50545;56.064;26.178;2023-08-30T03:49:21;3.83;;;2.00;;
64225;SDS011;50545;56.064;26.178;2023-08-30T03:51:52;2.67;;;2.00;;
64225;SDS011;50545;56.064;26.178;2023-08-30T03:54:25;2.10;;;1.70;;
64225;SDS011;50545;56.064;26.178;2023-08-30T03:57:04;1.95;;;1.67;;
64225;SDS011;50545;56.064;26.178;2023-08-30T03:59:37;2.45;;;1.98;;
64225;SDS011;50545;56.064;26.178;2023-08-30T04:02:10;2.20;;;1.85;;
64225;SDS011;50545;56.064;26.178;2023-08-30T04:04:43;2.40;;;1.85;;
64225;SDS011;50545;56.064;26.178;2023-08-30T04:07:27;2.67;;;1.80;;
64225;SDS011;50545;56.064;26.178;2023-08-30T04:10:11;2.20;;;1.80;;
64225;SDS011;50545;56.064;26.178;2023-08-30T04:13:10;2.17;;;1.73;;
64225;SDS011;50545;56.064;26.178;2023-08-30T04:15:41;4.10;;;1.85;;
64225;SDS011;50545;56.064;26.178;2023-08-30T04:18:19;2.35;;;1.88;;
64225;SDS011;50545;56.064;26.178;2023-08-30T04:20:52;1.92;;;1.60;;
64225;SDS011;50545;56.064;26.178;2023-08-30T04:23:29;2.17;;;1.70;;
64225;SDS011;50545;56.064;26.178;2023-08-30T04:26:03;2.10;;;1.83;;
64225;SDS011;50545;56.064;26.178;2023-08-30T04:28:33;3.50;;;1.95;;
64225;SDS011;50545;56.064;26.178;2023-08-30T04:31:17;4.18;;;1.73;;
64225;SDS011;50545;56.064;26.178;2023-08-30T04:33:51;2.72;;;1.80;;
64225;SDS011;50545;56.064;26.178;2023-08-30T04:36:25;3.83;;;1.75;;
64225;SDS011;50545;56.064;26.178;2023-08-30T04:38:59;2.72;;;1.60;;
64225;SDS011;50545;56.064;26.178;2023-08-30T04:41:37;2.33;;;1.60;;
64225;SDS011;50545;56.064;26.178;2023-08-30T04:44:11;1.85;;;1.50;;
64225;SDS011;50545;56.064;26.178;2023-08-30T04:47:02;3.03;;;2.00;;
64225;SDS011;50545;56.064;26.178;2023-08-30T04:49:33;1.92;;;1.50;;
64225;SDS011;50545;56.064;26.178;2023-08-30T04:52:13;2.60;;;1.77;;
64225;SDS011;50545;56.064;26.178;2023-08-30T04:54:47;2.42;;;1.67;;
64225;SDS011;50545;56.064;26.178;2023-08-30T04:57:19;2.42;;;1.63;;
64225;SDS011;50545;56.064;26.178;2023-08-30T05:00:09;4.07;;;1.90;;
64225;SDS011;50545;56.064;26.178;2023-08-30T05:03:03;1.98;;;1.63;;
64225;SDS011;50545;56.064;26.178;2023-08-30T05:05:36;2.45;;;1.70;;
64225;SDS011;50545;56.064;26.178;2023-08-30T05:08:06;3.90;;;1.92;;
64225;SDS011;50545;56.064;26.178;2023-08-30T05:10:37;3.55;;;1.92;;
64225;SDS011;50545;56.064;26.178;2023-08-30T05:13:11;3.85;;;2.00;;
64225;SDS011;50545;56.064;26.178;2023-08-30T05:15:47;4.43;;;2.10;;
64225;SDS011;50545;56.064;26.178;2023-08-30T05:18:27;2.25;;;1.83;;
64225;SDS011;50545;56.064;26.178;2023-08-30T05:21:03;4.15;;;1.90;;
64225;SDS011;50545;56.064;26.178;2023-08-30T05:23:35;5.13;;;2.35;;
64225;SDS011;50545;56.064;26.178;2023-08-30T05:26:18;3.95;;;2.53;;
64225;SDS011;50545;56.064;26.178;2023-08-30T05:28:55;3.00;;;1.83;;
64225;SDS011;50545;56.064;26.178;2023-08-30T05:31:27;1.85;;;1.60;;
64225;SDS011;50545;56.064;26.178;2023-08-30T05:34:14;3.53;;;1.73;;
64225;SDS011;50545;56.064;26.178;2023-08-30T05:36:51;3.55;;;1.80;;
64225;SDS011;50545;56.064;26.178;2023-08-30T05:39:32;2.88;;;1.95;;
64225;SDS011;50545;56.064;26.178;2023-08-30T05:42:08;3.80;;;2.15;;
64225;SDS011;50545;56.064;26.178;2023-08-30T05:44:53;2.72;;;1.92;;
64225;SDS011;50545;56.064;26.178;2023-08-30T05:47:26;3.15;;;1.95;;
64225;SDS011;50545;56.064;26.178;2023-08-30T05:49:59;2.90;;;1.70;;
64225;SDS011;50545;56.064;26.178;2023-08-30T05:52:32;4.32;;;1.88;;
64225;SDS011;50545;56.064;26.178;2023-08-30T05:55:04;2.47;;;1.70;;
64225;SDS011;50545;56.064;26.178;2023-08-30T05:57:35;2.22;;;1.55;;
64225;SDS011;50545;56.064;26.178;2023-08-30T06:00:08;2.92;;;1.92;;
64225;SDS011;50545;56.064;26.178;2023-08-30T06:02:43;2.58;;;1.75;;
64225;SDS011;50545;56.064;26.178;2023-08-30T06:05:15;1.38;;;1.25;;
64225;SDS011;50545;56.064;26.178;2023-08-30T06:07:49;3.15;;;1.73;;
64225;SDS011;50545;56.064;26.178;2023-08-30T06:10:23;6.90;;;1.83;;
64225;SDS011;50545;56.064;26.178;2023-08-30T06:13:02;3.47;;;1.45;;
64225;SDS011;50545;56.064;26.178;2023-08-30T06:15:32;2.58;;;1.77;;
64225;SDS011;50545;56.064;26.178;2023-08-30T06:18:03;1.70;;;1.20;;
64225;SDS011;50545;56.064;26.178;2023-08-30T06:20:34;2.35;;;1.77;;
64225;SDS011;50545;56.064;26.178;2023-08-30T06:23:05;2.67;;;2.00;;
64225;SDS011;50545;56.064;26.178;2023-08-30T06:25:35;4.50;;;2.15;;
64225;SDS011;50545;56.064;26.178;2023-08-30T06:28:04;2.83;;;1.70;;
64225;SDS011;50545;56.064;26.178;2023-08-30T06:30:35;4.03;;;2.22;;
64225;SDS011;50545;56.064;26.178;2023-08-30T06:33:06;3.13;;;2.00;;
64225;SDS011;50545;56.064;26.178;2023-08-30T06:35:37;3.00;;;1.77;;
64225;SDS011;50545;56.064;26.178;2023-08-30T06:38:09;2.65;;;1.75;;
64225;SDS011;50545;56.064;26.178;2023-08-30T06:40:43;3.85;;;2.30;;
64225;SDS011;50545;56.064;26.178;2023-08-30T06:43:15;4.38;;;1.98;;
64225;SDS011;50545;56.064;26.178;2023-08-30T06:45:47;3.47;;;1.98;;
64225;SDS011;50545;56.064;26.178;2023-08-30T06:48:19;2.80;;;2.05;;
64225;SDS011;50545;56.064;26.178;2023-08-30T06:50:56;1.83;;;1.65;;
64225;SDS011;50545;56.064;26.178;2023-08-30T06:53:29;3.60;;;2.08;;
64225;SDS011;50545;56.064;26.178;2023-08-30T06:56:01;5.03;;;2.55;;
64225;SDS011;50545;56.064;26.178;2023-08-30T06:58:33;2.65;;;1.77;;
64225;SDS011;50545;56.064;26.178;2023-08-30T07:01:05;3.33;;;2.20;;
64225;SDS011;50545;56.064;26.178;2023-08-30T07:03:35;3.17;;;1.95;;
64225;SDS011;50545;56.064;26.178;2023-08-30T07:06:08;2.50;;;2.00;;
64225;SDS011;50545;56.064;26.178;2023-08-30T07:08:38;4.13;;;2.05;;
64225;SDS011;50545;56.064;26.178;2023-08-30T07:11:09;4.80;;;2.28;;
64225;SDS011;50545;56.064;26.178;2023-08-30T07:14:00;3.00;;;2.00;;
64225;SDS011;50545;56.064;26.178;2023-08-30T07:16:29;2.83;;;1.98;;
64225;SDS011;50545;56.064;26.178;2023-08-30T07:19:02;3.45;;;2.20;;
64225;SDS011;50545;56.064;26.178;2023-08-30T07:21:34;4.28;;;2.63;;
64225;SDS011;50545;56.064;26.178;2023-08-30T07:24:07;4.32;;;2.65;;
64225;SDS011;50545;56.064;26.178;2023-08-30T07:26:40;6.00;;;2.75;;
64225;SDS011;50545;56.064;26.178;2023-08-30T07:29:15;3.72;;;2.22;;
64225;SDS011;50545;56.064;26.178;2023-08-30T07:31:46;4.20;;;2.13;;
64225;SDS011;50545;56.064;26.178;2023-08-30T07:34:16;3.50;;;2.00;;
64225;SDS011;50545;56.064;26.178;2023-08-30T07:39:18;3.50;;;2.40;;
64225;SDS011;50545;56.064;26.178;2023-08-30T07:41:49;3.05;;;2.20;;
64225;SDS011;50545;56.064;26.178;2023-08-30T07:44:20;1.42;;;1.08;;
64225;SDS011;50545;56.064;26.178;2023-08-30T07:46:50;4.78;;;2.35;;
64225;SDS011;50545;56.064;26.178;2023-08-30T07:49:21;1.38;;;1.23;;
64225;SDS011;50545;56.064;26.178;2023-08-30T07:51:54;4.40;;;2.47;;
64225;SDS011;50545;56.064;26.178;2023-08-30T07:54:25;3.17;;;2.15;;
64225;SDS011;50545;56.064;26.178;2023-08-30T07:59:25;5.07;;;2.77;;
64225;SDS011;50545;56.064;26.178;2023-08-30T08:01:57;3.90;;;2.45;;
64225;SDS011;50545;56.064;26.178;2023-08-30T08:04:27;4.15;;;2.72;;
64225;SDS011;50545;56.064;26.178;2023-08-30T08:06:58;4.47;;;2.97;;
64225;SDS011;50545;56.064;26.178;2023-08-30T08:09:31;6.53;;;4.10;;
64225;SDS011;50545;56.064;26.178;2023-08-30T08:12:04;2.58;;;2.03;;
64225;SDS011;50545;56.064;26.178;2023-08-30T08:14:37;4.22;;;2.38;;
64225;SDS011;50545;56.064;26.178;2023-08-30T08:17:07;4.75;;;2.65;;
64225;SDS011;50545;56.064;26.178;2023-08-30T08:19:38;5.95;;;3.55;;
64225;SDS011;50545;56.064;26.178;2023-08-30T08:22:12;6.25;;;3.65;;
64225;SDS011;50545;56.064;26.178;2023-08-30T08:24:43;4.60;;;3.05;;
64225;SDS011;50545;56.064;26.178;2023-08-30T08:27:15;5.80;;;3.85;;
64225;SDS011;50545;56.064;26.178;2023-08-30T08:29:47;7.72;;;3.05;;
64225;SDS011;50545;56.064;26.178;2023-08-30T08:32:20;5.90;;;3.33;;
64225;SDS011;50545;56.064;26.178;2023-08-30T08:34:50;5.70;;;3.83;;
64225;SDS011;50545;56.064;26.178;2023-08-30T08:37:23;5.45;;;3.65;;
64225;SDS011;50545;56.064;26.178;2023-08-30T08:39:53;6.63;;;3.85;;
64225;SDS011;50545;56.064;26.178;2023-08-30T08:44:53;5.80;;;3.80;;
64225;SDS011;50545;56.064;26.178;2023-08-30T08:47:23;4.13;;;2.83;;
64225;SDS011;50545;56.064;26.178;2023-08-30T08:49:53;6.53;;;3.42;;
64225;SDS011;50545;56.064;26.178;2023-08-30T08:52:25;6.00;;;3.92;;
64225;SDS011;50545;56.064;26.178;2023-08-30T08:55:04;6.55;;;3.75;;
64225;SDS011;50545;56.064;26.178;2023-08-30T09:00:06;4.40;;;2.95;;
64225;SDS011;50545;56.064;26.178;2023-08-30T09:02:36;7.22;;;4.32;;
64225;SDS011;50545;56.064;26.178;2023-08-30T09:05:09;6.80;;;4.25;;
64225;SDS011;50545;56.064;26.178;2023-08-30T09:07:39;7.22;;;4.57;;
64225;SDS011;50545;56.064;26.178;2023-08-30T09:10:09;7.25;;;4.68;;
64225;SDS011;50545;56.064;26.178;2023-08-30T09:12:39;8.80;;;5.50;;
64225;SDS011;50545;56.064;26.178;2023-08-30T09:15:09;11.05;;;6.80;;
64225;SDS011;50545;56.064;26.178;2023-08-30T09:17:38;7.85;;;4.88;;
64225;SDS011;50545;56.064;26.178;2023-08-30T09:20:11;9.65;;;5.63;;
64225;SDS011;50545;56.064;26.178;2023-08-30T09:22:42;8.07;;;5.47;;
64225;SDS011;50545;56.064;26.178;2023-08-30T09:25:22;10.45;;;5.38;;
64225;SDS011;50545;56.064;26.178;2023-08-30T09:27:58;11.45;;;6.90;;
64225;SDS011;50545;56.064;26.178;2023-08-30T09:30:27;7.80;;;4.53;;
64225;SDS011;50545;56.064;26.178;2023-08-30T09:33:01;9.45;;;6.32;;
64225;SDS011;50545;56.064;26.178;2023-08-30T09:35:32;9.25;;;5.15;;
64225;SDS011;50545;56.064;26.178;2023-08-30T09:38:20;8.30;;;5.15;;
64225;SDS011;50545;56.064;26.178;2023-08-30T09:40:50;10.10;;;6.05;;
64225;SDS011;50545;56.064;26.178;2023-08-30T09:43:30;6.80;;;4.35;;
64225;SDS011;50545;56.064;26.178;2023-08-30T09:46:04;12.05;;;6.93;;
64225;SDS011;50545;56.064;26.178;2023-08-30T09:48:34;12.02;;;6.40;;
64225;SDS011;50545;56.064;26.178;2023-08-30T09:51:07;8.68;;;6.03;;
64225;SDS011;50545;56.064;26.178;2023-08-30T09:53:42;15.40;;;8.70;;
64225;SDS011;50545;56.064;26.178;2023-08-30T09:56:36;15.23;;;8.07;;
64225;SDS011;50545;56.064;26.178;2023-08-30T09:59:06;11.85;;;6.43;;
64225;SDS011;50545;56.064;26.178;2023-08-30T10:01:37;9.07;;;5.68;;
64225;SDS011;50545;56.064;26.178;2023-08-30T10:04:13;10.85;;;6.15;;
64225;SDS011;50545;56.064;26.178;2023-08-30T10:06:45;12.15;;;6.50;;
64225;SDS011;50545;56.064;26.178;2023-08-30T10:09:16;12.02;;;7.35;;
64225;SDS011;50545;56.064;26.178;2023-08-30T10:11:47;11.90;;;6.75;;
64225;SDS011;50545;56.064;26.178;2023-08-30T10:14:19;13.15;;;7.13;;
64225;SDS011;50545;56.064;26.178;2023-08-30T10:16:48;18.30;;;8.00;;
64225;SDS011;50545;56.064;26.178;2023-08-30T10:19:24;16.58;;;8.32;;
64225;SDS011;50545;56.064;26.178;2023-08-30T10:22:05;12.43;;;6.85;;
64225;SDS011;50545;56.064;26.178;2023-08-30T10:24:45;23.33;;;9.32;;
64225;SDS011;50545;56.064;26.178;2023-08-30T10:27:41;20.25;;;9.07;;
64225;SDS011;50545;56.064;26.178;2023-08-30T10:30:14;21.55;;;9.07;;
64225;SDS011;50545;56.064;26.178;2023-08-30T10:32:45;22.58;;;9.77;;
64225;SDS011;50545;56.064;26.178;2023-08-30T10:35:18;12.83;;;6.43;;
64225;SDS011;50545;56.064;26.178;2023-08-30T10:37:56;14.10;;;6.93;;
64225;SDS011;50545;56.064;26.178;2023-08-30T10:40:28;16.83;;;7.78;;
64225;SDS011;50545;56.064;26.178;2023-08-30T10:43:01;15.25;;;8.05;;
64225;SDS011;50545;56.064;26.178;2023-08-30T10:45:32;14.10;;;7.55;;
64225;SDS011;50545;56.064;26.178;2023-08-30T10:48:02;12.02;;;6.00;;
64225;SDS011;50545;56.064;26.178;2023-08-30T10:50:31;16.33;;;8.60;;
64225;SDS011;50545;56.064;26.178;2023-08-30T10:52:59;17.35;;;8.15;;
64225;SDS011;50545;56.064;26.178;2023-08-30T10:55:27;27.45;;;10.88;;
64225;SDS011;50545;56.064;26.178;2023-08-30T10:57:58;26.70;;;10.35;;
64225;SDS011;50545;56.064;26.178;2023-08-30T11:00:31;30.73;;;10.77;;
64225;SDS011;50545;56.064;26.178;2023-08-30T11:02:58;36.25;;;12.45;;
64225;SDS011;50545;56.064;26.178;2023-08-30T11:05:26;31.65;;;10.80;;
64225;SDS011;50545;56.064;26.178;2023-08-30T11:07:58;28.63;;;10.32;;
64225;SDS011;50545;56.064;26.178;2023-08-30T11:10:25;37.28;;;12.32;;
64225;SDS011;50545;56.064;26.178;2023-08-30T11:12:53;31.65;;;10.48;;
64225;SDS011;50545;56.064;26.178;2023-08-30T11:15:22;34.22;;;11.60;;
64225;SDS011;50545;56.064;26.178;2023-08-30T11:17:52;31.77;;;13.15;;
64225;SDS011;50545;56.064;26.178;2023-08-30T11:20:29;45.55;;;13.95;;
64225;SDS011;50545;56.064;26.178;2023-08-30T11:22:57;47.90;;;13.57;;
64225;SDS011;50545;56.064;26.178;2023-08-30T11:25:24;47.67;;;14.45;;
64225;SDS011;50545;56.064;26.178;2023-08-30T11:28:01;33.03;;;10.45;;
64225;SDS011;50545;56.064;26.178;2023-08-30T11:30:31;35.90;;;12.07;;
64225;SDS011;50545;56.064;26.178;2023-08-30T11:32:59;41.15;;;13.65;;
64225;SDS011;50545;56.064;26.178;2023-08-30T11:35:26;37.85;;;12.75;;
64225;SDS011;50545;56.064;26.178;2023-08-30T11:37:54;47.88;;;15.07;;
64225;SDS011;50545;56.064;26.178;2023-08-30T11:40:21;46.22;;;13.65;;
64225;SDS011;50545;56.064;26.178;2023-08-30T11:42:49;52.03;;;15.40;;
64225;SDS011;50545;56.064;26.178;2023-08-30T11:45:17;68.28;;;18.58;;
64225;SDS011;50545;56.064;26.178;2023-08-30T11:47:45;34.72;;;11.73;;
64225;SDS011;50545;56.064;26.178;2023-08-30T11:50:13;46.03;;;14.15;;
64225;SDS011;50545;56.064;26.178;2023-08-30T11:52:40;44.88;;;13.43;;
64225;SDS011;50545;56.064;26.178;2023-08-30T11:55:08;48.90;;;15.35;;
64225;SDS011;50545;56.064;26.178;2023-08-30T11:57:36;56.40;;;16.92;;
64225;SDS011;50545;56.064;26.178;2023-08-30T12:00:08;51.47;;;15.00;;
64225;SDS011;50545;56.064;26.178;2023-08-30T12:02:39;60.92;;;17.25;;
64225;SDS011;50545;56.064;26.178;2023-08-30T12:05:11;64.70;;;17.15;;
64225;SDS011;50545;56.064;26.178;2023-08-30T12:07:40;64.55;;;17.40;;
64225;SDS011;50545;56.064;26.178;2023-08-30T12:10:10;64.30;;;17.80;;
64225;SDS011;50545;56.064;26.178;2023-08-30T12:12:38;58.67;;;17.42;;
64225;SDS011;50545;56.064;26.178;2023-08-30T12:15:11;63.17;;;17.65;;
64225;SDS011;50545;56.064;26.178;2023-08-30T12:17:40;55.67;;;15.55;;
64225;SDS011;50545;56.064;26.178;2023-08-30T12:20:14;70.53;;;14.63;;
64225;SDS011;50545;56.064;26.178;2023-08-30T12:22:47;48.92;;;13.75;;
64225;SDS011;50545;56.064;26.178;2023-08-30T12:25:20;60.63;;;17.05;;
64225;SDS011;50545;56.064;26.178;2023-08-30T12:27:53;68.70;;;16.77;;
64225;SDS011;50545;56.064;26.178;2023-08-30T12:30:21;64.05;;;16.33;;
64225;SDS011;50545;56.064;26.178;2023-08-30T12:32:49;75.55;;;17.90;;
64225;SDS011;50545;56.064;26.178;2023-08-30T12:35:16;75.70;;;18.75;;
64225;SDS011;50545;56.064;26.178;2023-08-30T12:37:44;68.10;;;17.48;;
64225;SDS011;50545;56.064;26.178;2023-08-30T12:40:11;77.88;;;17.48;;
64225;SDS011;50545;56.064;26.178;2023-08-30T12:42:39;68.47;;;19.05;;
64225;SDS011;50545;56.064;26.178;2023-08-30T12:45:07;82.07;;;20.23;;
64225;SDS011;50545;56.064;26.178;2023-08-30T12:47:35;81.63;;;18.98;;
64225;SDS011;50545;56.064;26.178;2023-08-30T12:50:03;80.50;;;20.30;;
64225;SDS011;50545;56.064;26.178;2023-08-30T12:52:30;88.72;;;18.38;;
64225;SDS011;50545;56.064;26.178;2023-08-30T12:54:58;64.57;;;16.90;;
64225;SDS011;50545;56.064;26.178;2023-08-30T12:57:26;61.22;;;16.25;;
64225;SDS011;50545;56.064;26.178;2023-08-30T12:59:54;75.25;;;16.65;;
64225;SDS011;50545;56.064;26.178;2023-08-30T13:02:21;75.63;;;17.58;;
64225;SDS011;50545;56.064;26.178;2023-08-30T13:04:49;76.07;;;18.48;;
64225;SDS011;50545;56.064;26.178;2023-08-30T13:07:16;85.63;;;18.60;;
64225;SDS011;50545;56.064;26.178;2023-08-30T13:09:43;65.53;;;16.20;;
64225;SDS011;50545;56.064;26.178;2023-08-30T13:12:11;53.97;;;15.68;;
64225;SDS011;50545;56.064;26.178;2023-08-30T13:14:39;48.78;;;13.20;;
64225;SDS011;50545;56.064;26.178;2023-08-30T13:17:06;44.47;;;12.60;;
64225;SDS011;50545;56.064;26.178;2023-08-30T13:19:36;59.10;;;16.65;;
64225;SDS011;50545;56.064;26.178;2023-08-30T13:22:04;61.72;;;16.20;;
64225;SDS011;50545;56.064;26.178;2023-08-30T13:24:32;83.68;;;19.40;;
64225;SDS011;50545;56.064;26.178;2023-08-30T13:26:59;86.03;;;20.98;;
64225;SDS011;50545;56.064;26.178;2023-08-30T13:29:26;83.22;;;18.50;;
64225;SDS011;50545;56.064;26.178;2023-08-30T13:31:54;92.78;;;22.00;;
64225;SDS011;50545;56.064;26.178;2023-08-30T13:34:22;63.13;;;16.20;;
64225;SDS011;50545;56.064;26.178;2023-08-30T13:36:49;87.38;;;20.83;;
64225;SDS011;50545;56.064;26.178;2023-08-30T13:39:16;76.07;;;18.77;;
64225;SDS011;50545;56.064;26.178;2023-08-30T13:41:46;92.50;;;21.40;;
64225;SDS011;50545;56.064;26.178;2023-08-30T13:44:14;78.10;;;20.52;;
64225;SDS011;50545;56.064;26.178;2023-08-30T13:46:43;77.60;;;19.33;;
64225;SDS011;50545;56.064;26.178;2023-08-30T13:49:11;83.75;;;18.67;;
64225;SDS011;50545;56.064;26.178;2023-08-30T13:51:38;77.10;;;19.63;;
64225;SDS011;50545;56.064;26.178;2023-08-30T13:54:06;82.15;;;20.60;;
64225;SDS011;50545;56.064;26.178;2023-08-30T13:56:33;80.93;;;20.92;;
64225;SDS011;50545;56.064;26.178;2023-08-30T13:59:01;59.10;;;16.42;;
64225;SDS011;50545;56.064;26.178;2023-08-30T14:01:29;54.25;;;14.65;;
64225;SDS011;50545;56.064;26.178;2023-08-30T14:03:56;87.97;;;22.27;;
64225;SDS011;50545;56.064;26.178;2023-08-30T14:06:24;71.00;;;18.33;;
64225;SDS011;50545;56.064;26.178;2023-08-30T14:08:51;95.20;;;23.00;;
64225;SDS011;50545;56.064;26.178;2023-08-30T14:11:19;92.22;;;22.55;;
64225;SDS011;50545;56.064;26.178;2023-08-30T14:13:46;74.60;;;18.70;;
64225;SDS011;50545;56.064;26.178;2023-08-30T14:16:14;72.18;;;17.40;;
64225;SDS011;50545;56.064;26.178;2023-08-30T14:18:42;73.43;;;18.80;;
64225;SDS011;50545;56.064;26.178;2023-08-30T14:21:10;72.18;;;19.05;;
64225;SDS011;50545;56.064;26.178;2023-08-30T14:23:37;85.95;;;21.25;;
64225;SDS011;50545;56.064;26.178;2023-08-30T14:26:05;80.47;;;20.88;;
64225;SDS011;50545;56.064;26.178;2023-08-30T14:28:36;88.20;;;21.52;;
64225;SDS011;50545;56.064;26.178;2023-08-30T14:31:08;102.18;;;23.00;;
64225;SDS011;50545;56.064;26.178;2023-08-30T14:33:36;94.78;;;22.67;;
64225;SDS011;50545;56.064;26.178;2023-08-30T14:36:10;115.30;;;25.02;;
64225;SDS011;50545;56.064;26.178;2023-08-30T14:38:38;106.93;;;24.33;;
64225;SDS011;50545;56.064;26.178;2023-08-30T14:41:07;119.10;;;25.75;;
64225;SDS011;50545;56.064;26.178;2023-08-30T14:43:35;107.88;;;24.10;;
64225;SDS011;50545;56.064;26.178;2023-08-30T14:46:03;110.25;;;24.92;;
64225;SDS011;50545;56.064;26.178;2023-08-30T14:48:38;117.35;;;26.55;;
64225;SDS011;50545;56.064;26.178;2023-08-30T14:51:06;118.65;;;25.10;;
64225;SDS011;50545;56.064;26.178;2023-08-30T14:53:36;106.93;;;25.50;;
64225;SDS011;50545;56.064;26.178;2023-08-30T14:56:04;129.02;;;27.92;;
64225;SDS011;50545;56.064;26.178;2023-08-30T14:58:36;111.97;;;25.58;;
64225;SDS011;50545;56.064;26.178;2023-08-30T15:01:04;117.10;;;26.10;;
64225;SDS011;50545;56.064;26.178;2023-08-30T15:03:32;106.82;;;25.15;;
64225;SDS011;50545;56.064;26.178;2023-08-30T15:06:00;105.25;;;24.42;;
64225;SDS011;50545;56.064;26.178;2023-08-30T15:08:28;106.22;;;25.30;;
64225;SDS011;50545;56.064;26.178;2023-08-30T15:10:56;114.40;;;25.98;;
64225;SDS011;50545;56.064;26.178;2023-08-30T15:13:24;111.47;;;25.33;;
64225;SDS011;50545;56.064;26.178;2023-08-30T15:15:52;114.72;;;27.48;;
64225;SDS011;50545;56.064;26.178;2023-08-30T15:18:20;112.53;;;26.25;;
64225;SDS011;50545;56.064;26.178;2023-08-30T15:20:48;106.38;;;25.70;;
64225;SDS011;50545;56.064;26.178;2023-08-30T15:23:19;111.78;;;26.02;;
64225;SDS011;50545;56.064;26.178;2023-08-30T15:25:47;120.07;;;26.33;;
64225;SDS011;50545;56.064;26.178;2023-08-30T15:28:15;103.78;;;25.52;;
64225;SDS011;50545;56.064;26.178;2023-08-30T15:30:44;109.05;;;25.55;;
64225;SDS011;50545;56.064;26.178;2023-08-30T15:33:13;126.25;;;27.92;;
64225;SDS011;50545;56.064;26.178;2023-08-30T15:35:46;120.47;;;26.80;;
64225;SDS011;50545;56.064;26.178;2023-08-30T15:38:14;113.63;;;26.58;;
64225;SDS011;50545;56.064;26.178;2023-08-30T15:40:42;110.20;;;26.05;;
64225;SDS011;50545;56.064;26.178;2023-08-30T15:43:10;106.10;;;25.05;;
64225;SDS011;50545;56.064;26.178;2023-08-30T15:45:38;103.10;;;23.52;;
64225;SDS011;50545;56.064;26.178;2023-08-30T15:48:05;90.78;;;19.85;;
64225;SDS011;50545;56.064;26.178;2023-08-30T15:50:33;69.22;;;17.00;;
64225;SDS011;50545;56.064;26.178;2023-08-30T15:53:01;85.10;;;19.70;;
64225;SDS011;50545;56.064;26.178;2023-08-30T15:55:28;79.57;;;19.73;;
64225;SDS011;50545;56.064;26.178;2023-08-30T15:57:57;84.05;;;19.52;;
64225;SDS011;50545;56.064;26.178;2023-08-30T16:00:24;51.40;;;13.95;;
64225;SDS011;50545;56.064;26.178;2023-08-30T16:02:52;47.58;;;14.15;;